Time;durP1;ratioP1;P1;durP2;ratioP2;P2;SDS_P1;SDS_P2;PMS_P1;PMS_P2;Temp;Humidity;BMP_temperature;BMP_pressure;BME280_temperature;BME280_humidity;BME280_pressure;Samples;Min_cycle;Max_cycle;Signal;HPM_P1;HPM_P2
2022/02/15 00:00:52;;;;;;;7.67;4.03;;;;;;;;;;6184501;28;21046;-66
2022/02/15 00:04:13;;;;;;;6.57;2.70;;;;;;;;;;6189040;28;20233;-67
2022/02/15 00:07:35;;;;;;;7.13;4.23;;;;;;;;;;6187463;28;20242;-67
2022/02/15 00:10:56;;;;;;;7.23;3.00;;;;;;;;;;6191084;28;20686;-66
2022/02/15 00:14:17;;;;;;;5.13;2.93;;;;;;;;;;6188896;28;20245;-66
2022/02/15 00:17:40;;;;;;;4.20;3.30;;;;;;;;;;6186819;28;20226;-66
2022/02/15 00:21:01;;;;;;;5.17;2.23;;;;;;;;;;6190184;28;20237;-66
2022/02/15 00:24:22;;;;;;;4.90;2.23;;;;;;;;;;6191299;28;20229;-67
2022/02/15 00:27:43;;;;;;;5.67;2.73;;;;;;;;;;6182045;28;20242;-66
2022/02/15 00:31:04;;;;;;;8.80;3.03;;;;;;;;;;6176270;28;20231;-67
2022/02/15 00:34:27;;;;;;;4.63;2.63;;;;;;;;;;6178862;28;20226;-66
2022/02/15 00:37:47;;;;;;;6.10;3.77;;;;;;;;;;6175647;28;20234;-67
2022/02/15 00:41:08;;;;;;;8.33;3.10;;;;;;;;;;6148888;28;21156;-66
2022/02/15 00:44:31;;;;;;;3.80;2.70;;;;;;;;;;6168025;28;20233;-66
2022/02/15 00:47:51;;;;;;;6.70;3.00;;;;;;;;;;6175473;28;20237;-66
2022/02/15 00:51:13;;;;;;;6.33;3.53;;;;;;;;;;6176157;28;20227;-66
2022/02/15 00:54:34;;;;;;;4.57;2.80;;;;;;;;;;6178475;28;20241;-67
2022/02/15 00:57:55;;;;;;;8.83;3.27;;;;;;;;;;6182009;28;20221;-66
2022/02/15 01:01:15;;;;;;;8.03;3.20;;;;;;;;;;6174050;28;20310;-67
2022/02/15 01:04:36;;;;;;;6.17;2.93;;;;;;;;;;6174807;28;20245;-66
2022/02/15 01:07:58;;;;;;;8.23;3.53;;;;;;;;;;6171154;28;20234;-66
2022/02/15 01:11:18;;;;;;;9.17;4.20;;;;;;;;;;6169252;28;20234;-66
2022/02/15 01:14:42;;;;;;;4.27;3.30;;;;;;;;;;6175549;28;20584;-66
2022/02/15 01:18:03;;;;;;;17.83;4.83;;;;;;;;;;6172319;28;20231;-66
2022/02/15 01:21:24;;;;;;;6.93;4.13;;;;;;;;;;6186444;28;20312;-66
2022/02/15 01:24:46;;;;;;;5.23;2.73;;;;;;;;;;6172631;28;20623;-66
2022/02/15 01:28:07;;;;;;;6.20;4.00;;;;;;;;;;6188348;28;20241;-65
2022/02/15 01:31:27;;;;;;;6.70;4.40;;;;;;;;;;6172996;28;20226;-66
2022/02/15 01:34:48;;;;;;;6.97;3.93;;;;;;;;;;6177747;28;20234;-66
2022/02/15 01:38:09;;;;;;;5.30;4.53;;;;;;;;;;6170312;28;20245;-65
2022/02/15 01:41:30;;;;;;;7.43;4.40;;;;;;;;;;6183775;28;20238;-66
2022/02/15 01:44:51;;;;;;;7.33;4.40;;;;;;;;;;6171134;28;20229;-67
2022/02/15 01:48:12;;;;;;;6.50;4.40;;;;;;;;;;6172100;28;20230;-66
2022/02/15 01:51:33;;;;;;;5.73;5.23;;;;;;;;;;6169316;28;20242;-67
2022/02/15 01:54:57;;;;;;;6.23;4.67;;;;;;;;;;6190709;28;20242;-67
2022/02/15 01:58:18;;;;;;;8.17;4.63;;;;;;;;;;6152494;28;20340;-67
2022/02/15 02:01:48;;;;;;;7.03;5.83;;;;;;;;;;6180716;28;20234;-66
2022/02/15 02:08:52;;;;;;;6.73;5.07;;;;;;;;;;6170014;28;20230;-66
2022/02/15 02:12:12;;;;;;;7.67;5.47;;;;;;;;;;6195062;28;20304;-66
2022/02/15 02:15:44;;;;;;;8.00;5.53;;;;;;;;;;6165635;28;20222;-66
2022/02/15 02:19:28;;;;;;;6.37;5.20;;;;;;;;;;6183106;28;20511;-67
2022/02/15 02:22:50;;;;;;;4.97;4.47;;;;;;;;;;6183733;28;20631;-66
2022/02/15 02:26:11;;;;;;;6.13;5.53;;;;;;;;;;6169017;28;20238;-66
2022/02/15 02:29:33;;;;;;;9.67;6.23;;;;;;;;;;6172137;28;20699;-66
2022/02/15 02:32:54;;;;;;;8.23;6.13;;;;;;;;;;6167697;28;20226;-67
2022/02/15 02:36:15;;;;;;;8.77;6.20;;;;;;;;;;6183108;28;20234;-66
2022/02/15 02:39:37;;;;;;;8.27;6.97;;;;;;;;;;6176862;28;20820;-66
2022/02/15 02:42:58;;;;;;;9.53;6.77;;;;;;;;;;6185055;28;20230;-66
2022/02/15 02:46:18;;;;;;;8.93;8.03;;;;;;;;;;6167625;28;20237;-67
2022/02/15 02:49:39;;;;;;;7.73;6.50;;;;;;;;;;6185746;28;20702;-66
2022/02/15 02:53:00;;;;;;;8.97;7.03;;;;;;;;;;6181979;28;20336;-66
2022/02/15 02:56:25;;;;;;;8.33;7.27;;;;;;;;;;6161501;28;20235;-66
2022/02/15 02:59:47;;;;;;;10.67;7.63;;;;;;;;;;6159403;28;20515;-67
2022/02/15 03:03:09;;;;;;;9.47;8.50;;;;;;;;;;6174712;28;20237;-65
2022/02/15 03:06:33;;;;;;;8.70;7.67;;;;;;;;;;6169975;28;20401;-66
2022/02/15 03:09:54;;;;;;;9.60;8.60;;;;;;;;;;6181859;28;20253;-67
2022/02/15 03:13:16;;;;;;;9.50;8.50;;;;;;;;;;6185326;28;20604;-66
2022/02/15 03:16:37;;;;;;;13.23;10.13;;;;;;;;;;6171906;28;20226;-66
2022/02/15 03:19:58;;;;;;;11.77;8.30;;;;;;;;;;6172102;28;20233;-68
2022/02/15 03:23:19;;;;;;;10.17;9.17;;;;;;;;;;6173854;28;20309;-66
2022/02/15 03:26:41;;;;;;;11.90;9.37;;;;;;;;;;6173617;28;20320;-66
2022/02/15 03:30:04;;;;;;;11.47;9.23;;;;;;;;;;6177175;28;20229;-66
2022/02/15 03:33:32;;;;;;;10.47;9.47;;;;;;;;;;6177931;28;20226;-66
2022/02/15 03:36:52;;;;;;;9.70;8.20;;;;;;;;;;6188935;28;20237;-66
2022/02/15 03:40:13;;;;;;;7.77;7.17;;;;;;;;;;6176583;28;20245;-66
2022/02/15 03:43:34;;;;;;;9.97;7.60;;;;;;;;;;6177424;28;20516;-65
2022/02/15 03:46:58;;;;;;;8.27;7.50;;;;;;;;;;6176377;28;20233;-66
2022/02/15 03:50:25;;;;;;;9.53;7.40;;;;;;;;;;6170719;28;20232;-66
2022/02/15 03:53:46;;;;;;;12.17;7.30;;;;;;;;;;6189142;28;20233;-66
2022/02/15 03:57:07;;;;;;;5.90;5.33;;;;;;;;;;6176966;28;20643;-66
2022/02/15 04:00:28;;;;;;;6.97;6.27;;;;;;;;;;6174326;28;20567;-67
2022/02/15 04:04:10;;;;;;;6.10;5.50;;;;;;;;;;6176783;28;20327;-66
2022/02/15 04:07:31;;;;;;;5.63;4.67;;;;;;;;;;6177540;28;20238;-66
2022/02/15 04:10:52;;;;;;;8.90;4.53;;;;;;;;;;6172703;28;20226;-67
2022/02/15 04:14:19;;;;;;;6.97;5.23;;;;;;;;;;6190175;28;20241;-66
2022/02/15 04:17:41;;;;;;;4.67;4.27;;;;;;;;;;6188573;28;20230;-66
2022/02/15 04:21:03;;;;;;;5.27;4.53;;;;;;;;;;6166844;28;20234;-66
2022/02/15 04:24:25;;;;;;;3.57;3.27;;;;;;;;;;6190677;28;20630;-66
2022/02/15 04:27:47;;;;;;;3.77;3.47;;;;;;;;;;6175868;28;20249;-65
2022/02/15 04:31:09;;;;;;;5.90;3.40;;;;;;;;;;6174692;28;20261;-65
2022/02/15 04:34:30;;;;;;;4.80;3.43;;;;;;;;;;6188698;28;20234;-65
2022/02/15 04:37:52;;;;;;;3.53;3.20;;;;;;;;;;6188545;28;20517;-66
2022/02/15 04:41:12;;;;;;;4.13;3.73;;;;;;;;;;6172629;28;20237;-67
2022/02/15 04:44:33;;;;;;;9.03;4.63;;;;;;;;;;6176920;28;20255;-67
2022/02/15 04:47:55;;;;;;;5.60;5.17;;;;;;;;;;6175733;28;20238;-66
2022/02/15 04:51:18;;;;;;;4.50;4.10;;;;;;;;;;6175210;28;20744;-66
2022/02/15 04:54:44;;;;;;;4.73;4.07;;;;;;;;;;6175882;28;20234;-67
2022/02/15 04:58:05;;;;;;;5.47;4.80;;;;;;;;;;6186940;28;20222;-66
2022/02/15 05:01:33;;;;;;;5.00;4.60;;;;;;;;;;6172175;28;20611;-66
2022/02/15 05:05:02;;;;;;;8.20;4.83;;;;;;;;;;6169862;28;20225;-66
2022/02/15 05:08:32;;;;;;;5.73;4.43;;;;;;;;;;6171708;28;20233;-67
2022/02/15 05:11:58;;;;;;;5.30;4.27;;;;;;;;;;6171518;28;20241;-67
2022/02/15 05:15:20;;;;;;;4.97;4.33;;;;;;;;;;6181227;28;20237;-66
2022/02/15 05:19:01;;;;;;;4.33;3.93;;;;;;;;;;6161935;28;21091;-67
2022/02/15 05:22:25;;;;;;;4.17;3.67;;;;;;;;;;6175734;28;20233;-68
2022/02/15 05:25:50;;;;;;;6.47;4.63;;;;;;;;;;6185189;28;20852;-68
2022/02/15 05:29:37;;;;;;;7.70;4.60;;;;;;;;;;6172208;28;20620;-66
2022/02/15 05:33:09;;;;;;;5.90;5.33;;;;;;;;;;6187979;28;20236;-68
2022/02/15 05:36:38;;;;;;;5.80;5.30;;;;;;;;;;6174036;28;20229;-65
2022/02/15 05:39:59;;;;;;;6.07;5.30;;;;;;;;;;6172701;28;20618;-66
2022/02/15 05:43:49;;;;;;;8.03;6.07;;;;;;;;;;6183659;28;20329;-66
2022/02/15 05:47:14;;;;;;;6.67;5.50;;;;;;;;;;6168639;28;20238;-66
2022/02/15 05:50:52;;;;;;;6.73;5.67;;;;;;;;;;6171103;28;20536;-66
2022/02/15 05:54:32;;;;;;;8.77;6.67;;;;;;;;;;6185042;28;20238;-65
2022/02/15 05:58:02;;;;;;;8.80;6.67;;;;;;;;;;6174349;28;20230;-67
2022/02/15 06:01:22;;;;;;;6.90;6.20;;;;;;;;;;6188863;28;20504;-67
2022/02/15 06:04:44;;;;;;;7.70;7.00;;;;;;;;;;6171346;28;20237;-67
2022/02/15 06:08:08;;;;;;;8.77;5.87;;;;;;;;;;6187527;28;20225;-67
2022/02/15 06:11:32;;;;;;;10.27;6.27;;;;;;;;;;6167857;28;20339;-66
2022/02/15 06:14:53;;;;;;;8.20;6.47;;;;;;;;;;6165767;28;20230;-67
2022/02/15 06:18:15;;;;;;;7.17;6.27;;;;;;;;;;6182742;28;20230;-67
2022/02/15 06:21:43;;;;;;;7.03;6.33;;;;;;;;;;6170366;28;20234;-66
2022/02/15 06:25:10;;;;;;;8.47;7.07;;;;;;;;;;6169837;28;20233;-67
2022/02/15 06:28:43;;;;;;;8.33;7.37;;;;;;;;;;6165806;28;20233;-67
2022/02/15 06:32:10;;;;;;;8.67;6.43;;;;;;;;;;6186896;28;20328;-66
2022/02/15 06:35:30;;;;;;;9.60;8.70;;;;;;;;;;6172163;28;20253;-67
2022/02/15 06:38:58;;;;;;;8.97;6.93;;;;;;;;;;6174705;28;20242;-67
2022/02/15 06:42:21;;;;;;;9.93;8.93;;;;;;;;;;6183759;28;20538;-67
2022/02/15 06:45:41;;;;;;;8.43;7.40;;;;;;;;;;6172529;28;20234;-67
2022/02/15 06:49:04;;;;;;;8.97;7.73;;;;;;;;;;6164770;28;20238;-67
2022/02/15 06:52:25;;;;;;;9.43;7.27;;;;;;;;;;6172053;28;20537;-66
2022/02/15 06:55:57;;;;;;;11.40;7.73;;;;;;;;;;6185151;28;20248;-67
2022/02/15 06:59:18;;;;;;;8.67;7.83;;;;;;;;;;6175576;28;20242;-68
2022/02/15 07:02:40;;;;;;;8.33;6.93;;;;;;;;;;6171398;28;20225;-66
2022/02/15 07:06:04;;;;;;;8.70;7.90;;;;;;;;;;6131071;28;20238;-68
2022/02/15 07:09:26;;;;;;;11.27;7.50;;;;;;;;;;6149431;28;20229;-69
2022/02/15 07:13:08;;;;;;;9.00;7.83;;;;;;;;;;6176701;28;20578;-69
2022/02/15 07:16:34;;;;;;;9.17;8.23;;;;;;;;;;6161437;28;20245;-68
2022/02/15 07:19:59;;;;;;;8.77;7.90;;;;;;;;;;6169181;28;20241;-69
2022/02/15 07:23:39;;;;;;;12.73;9.60;;;;;;;;;;6180052;28;20225;-66
2022/02/15 07:27:19;;;;;;;10.97;8.33;;;;;;;;;;6176481;28;20528;-68
2022/02/15 07:30:45;;;;;;;15.53;10.27;;;;;;;;;;6183755;28;20227;-70
2022/02/15 07:34:12;;;;;;;10.50;9.50;;;;;;;;;;6166877;28;20372;-69
2022/02/15 07:37:32;;;;;;;11.63;10.43;;;;;;;;;;6175515;28;20218;-69
2022/02/15 07:40:53;;;;;;;9.87;8.60;;;;;;;;;;6174083;28;20229;-69
2022/02/15 07:44:13;;;;;;;10.90;9.53;;;;;;;;;;6170903;28;20229;-67
2022/02/15 07:47:38;;;;;;;11.23;10.07;;;;;;;;;;6170592;28;20238;-68
2022/02/15 07:50:59;;;;;;;13.10;10.13;;;;;;;;;;6172298;28;20233;-69
2022/02/15 07:54:19;;;;;;;10.77;9.67;;;;;;;;;;6172885;28;20708;-70
2022/02/15 07:57:41;;;;;;;12.40;8.07;;;;;;;;;;6170175;28;20222;-70
2022/02/15 08:01:01;;;;;;;12.80;10.90;;;;;;;;;;6167223;28;20238;-68
2022/02/15 08:04:23;;;;;;;14.53;10.20;;;;;;;;;;6179495;28;20602;-69
2022/02/15 08:07:50;;;;;;;14.27;12.47;;;;;;;;;;6167932;28;20584;-69
2022/02/15 08:11:10;;;;;;;13.87;10.27;;;;;;;;;;6184115;28;20229;-69
2022/02/15 08:14:33;;;;;;;13.87;12.13;;;;;;;;;;6180038;28;20246;-68
2022/02/15 08:17:53;;;;;;;12.33;10.80;;;;;;;;;;6173690;28;20636;-69
2022/02/15 08:21:17;;;;;;;10.67;9.50;;;;;;;;;;6169386;28;20263;-67
2022/02/15 08:24:37;;;;;;;10.63;9.30;;;;;;;;;;6170524;28;20261;-70
2022/02/15 08:27:58;;;;;;;11.00;9.77;;;;;;;;;;6176879;28;20233;-69
2022/02/15 08:31:20;;;;;;;8.87;7.80;;;;;;;;;;6164372;28;20550;-68
2022/02/15 08:34:41;;;;;;;9.37;8.47;;;;;;;;;;6166031;28;20242;-67
2022/02/15 08:38:03;;;;;;;7.93;7.23;;;;;;;;;;6168484;28;20237;-70
2022/02/15 08:41:23;;;;;;;9.23;8.23;;;;;;;;;;6174406;28;20612;-69
2022/02/15 08:44:44;;;;;;;13.60;8.37;;;;;;;;;;6174841;28;20312;-69
2022/02/15 08:48:06;;;;;;;8.70;7.80;;;;;;;;;;6184610;28;20225;-69
2022/02/15 08:51:29;;;;;;;12.43;8.73;;;;;;;;;;6180605;28;20625;-69
2022/02/15 08:54:52;;;;;;;10.97;9.87;;;;;;;;;;6173062;28;20242;-69
2022/02/15 08:58:12;;;;;;;11.57;10.47;;;;;;;;;;6178174;28;20242;-69
2022/02/15 09:01:33;;;;;;;13.37;10.17;;;;;;;;;;6183286;28;20230;-69
2022/02/15 09:04:54;;;;;;;11.20;10.13;;;;;;;;;;6182020;28;20232;-70
2022/02/15 09:08:14;;;;;;;12.67;9.63;;;;;;;;;;6180819;28;20320;-71
2022/02/15 09:11:36;;;;;;;10.73;9.63;;;;;;;;;;6185182;28;20238;-66
2022/02/15 09:14:57;;;;;;;10.53;9.43;;;;;;;;;;6171577;28;20280;-66
2022/02/15 09:18:17;;;;;;;10.30;8.90;;;;;;;;;;6179122;28;20237;-70
2022/02/15 09:21:39;;;;;;;13.03;9.30;;;;;;;;;;6177325;28;20229;-69
2022/02/15 09:24:59;;;;;;;14.40;9.57;;;;;;;;;;6180110;28;20230;-68
2022/02/15 09:28:21;;;;;;;11.20;8.87;;;;;;;;;;6172688;28;20261;-69
2022/02/15 09:31:42;;;;;;;10.60;9.50;;;;;;;;;;6178305;28;20694;-69
2022/02/15 09:35:03;;;;;;;11.47;8.83;;;;;;;;;;6180953;28;20233;-68
2022/02/15 09:38:23;;;;;;;7.97;7.20;;;;;;;;;;6180979;28;20261;-68
2022/02/15 09:41:45;;;;;;;13.60;6.87;;;;;;;;;;6180573;28;20229;-69
2022/02/15 09:45:08;;;;;;;10.63;6.70;;;;;;;;;;6177595;28;20268;-68
2022/02/15 09:48:29;;;;;;;6.93;5.83;;;;;;;;;;6168888;28;20330;-66
2022/02/15 09:51:50;;;;;;;6.43;5.40;;;;;;;;;;6175310;28;20242;-69
2022/02/15 09:55:10;;;;;;;7.03;5.93;;;;;;;;;;6168597;28;20307;-70
2022/02/15 09:58:32;;;;;;;9.70;5.73;;;;;;;;;;6173364;28;20238;-68
2022/02/15 10:01:54;;;;;;;5.80;5.20;;;;;;;;;;6172079;28;20325;-68
2022/02/15 10:05:16;;;;;;;8.47;5.97;;;;;;;;;;6168516;28;20225;-68
2022/02/15 10:08:37;;;;;;;9.10;5.13;;;;;;;;;;6168237;28;20262;-67
2022/02/15 10:12:05;;;;;;;10.23;5.17;;;;;;;;;;6172747;28;20492;-67
2022/02/15 10:15:28;;;;;;;6.43;5.27;;;;;;;;;;6179206;28;20495;-67
2022/02/15 10:18:55;;;;;;;7.97;5.27;;;;;;;;;;6182962;28;20226;-67
2022/02/15 10:22:17;;;;;;;6.10;4.73;;;;;;;;;;6182329;28;20242;-67
2022/02/15 10:25:38;;;;;;;5.07;3.97;;;;;;;;;;6180565;28;20261;-68
2022/02/15 10:28:58;;;;;;;5.53;4.17;;;;;;;;;;6181139;28;20332;-67
2022/02/15 10:32:20;;;;;;;4.93;4.50;;;;;;;;;;6178752;28;20246;-66
2022/02/15 10:35:51;;;;;;;5.67;4.33;;;;;;;;;;6183657;28;20225;-65
2022/02/15 10:39:13;;;;;;;5.10;4.70;;;;;;;;;;6182153;28;20703;-67
2022/02/15 10:42:35;;;;;;;6.00;4.87;;;;;;;;;;6181580;28;20760;-66
2022/02/15 10:45:56;;;;;;;5.70;5.10;;;;;;;;;;6180805;28;20614;-67
2022/02/15 10:49:17;;;;;;;5.47;4.27;;;;;;;;;;6175636;28;20273;-68
2022/02/15 10:52:39;;;;;;;7.27;5.47;;;;;;;;;;6181542;28;20226;-67
2022/02/15 10:55:59;;;;;;;7.03;4.93;;;;;;;;;;6182153;28;20321;-66
2022/02/15 10:59:21;;;;;;;5.10;4.70;;;;;;;;;;6181729;28;20241;-67
2022/02/15 11:02:42;;;;;;;7.63;6.90;;;;;;;;;;6171285;28;20233;-67
2022/02/15 11:06:04;;;;;;;7.53;6.83;;;;;;;;;;6159762;28;20316;-65
2022/02/15 11:09:31;;;;;;;9.40;7.83;;;;;;;;;;6185258;28;20229;-68
2022/02/15 11:12:53;;;;;;;8.87;8.07;;;;;;;;;;6173495;28;20244;-66
2022/02/15 11:16:15;;;;;;;8.73;7.93;;;;;;;;;;6176391;28;20281;-66
2022/02/15 11:19:37;;;;;;;8.07;7.30;;;;;;;;;;6172700;28;20242;-67
2022/02/15 11:22:59;;;;;;;9.83;7.80;;;;;;;;;;6173605;28;20253;-65
2022/02/15 11:26:23;;;;;;;10.17;8.23;;;;;;;;;;6179386;28;20880;-65
2022/02/15 11:29:54;;;;;;;10.83;9.60;;;;;;;;;;6170616;28;20558;-66
2022/02/15 11:33:20;;;;;;;11.77;10.47;;;;;;;;;;6178720;28;20237;-66
2022/02/15 11:36:47;;;;;;;11.50;8.90;;;;;;;;;;6177075;28;20233;-66
2022/02/15 11:40:09;;;;;;;9.67;8.87;;;;;;;;;;6173847;28;20233;-67
2022/02/15 11:43:31;;;;;;;13.07;10.03;;;;;;;;;;6187983;28;20226;-67
2022/02/15 11:46:53;;;;;;;10.47;9.10;;;;;;;;;;6183978;28;20234;-66
2022/02/15 11:50:15;;;;;;;11.63;10.10;;;;;;;;;;6179606;28;20238;-68
2022/02/15 11:53:36;;;;;;;10.10;9.10;;;;;;;;;;6179558;28;20264;-68
2022/02/15 11:56:56;;;;;;;12.93;11.73;;;;;;;;;;6181713;28;20222;-68
2022/02/15 12:00:18;;;;;;;13.60;12.30;;;;;;;;;;6176617;28;20222;-68
2022/02/15 12:03:44;;;;;;;14.30;12.80;;;;;;;;;;6174588;28;20230;-67
2022/02/15 12:07:05;;;;;;;12.97;11.53;;;;;;;;;;6174069;28;21702;-69
2022/02/15 12:10:34;;;;;;;12.73;11.43;;;;;;;;;;6171528;28;20242;-67
2022/02/15 12:13:54;;;;;;;12.50;10.97;;;;;;;;;;6174721;28;20607;-68
2022/02/15 12:17:22;;;;;;;11.67;10.43;;;;;;;;;;6158512;28;20238;-69
2022/02/15 12:20:45;;;;;;;11.27;10.37;;;;;;;;;;6175113;28;20817;-70
2022/02/15 12:24:06;;;;;;;11.67;10.17;;;;;;;;;;6176211;28;20234;-68
2022/02/15 12:27:47;;;;;;;10.17;9.17;;;;;;;;;;6182825;28;20245;-67
2022/02/15 12:31:09;;;;;;;10.67;9.67;;;;;;;;;;6181610;28;20260;-69
2022/02/15 12:34:31;;;;;;;12.70;9.03;;;;;;;;;;6187042;28;20230;-68
2022/02/15 12:37:52;;;;;;;9.40;8.60;;;;;;;;;;6187569;28;20245;-68
2022/02/15 12:41:13;;;;;;;11.40;8.27;;;;;;;;;;6186115;28;20234;-67
2022/02/15 12:44:34;;;;;;;8.93;8.13;;;;;;;;;;6183579;28;20994;-67
2022/02/15 12:47:54;;;;;;;9.97;9.07;;;;;;;;;;6182189;28;20260;-67
2022/02/15 12:51:16;;;;;;;8.97;8.13;;;;;;;;;;6184483;28;20257;-66
2022/02/15 12:54:38;;;;;;;8.73;7.87;;;;;;;;;;6153941;28;20512;-69
2022/02/15 12:57:58;;;;;;;9.20;8.30;;;;;;;;;;6182942;28;22107;-70
2022/02/15 13:01:19;;;;;;;10.80;9.80;;;;;;;;;;6178745;28;20238;-68
2022/02/15 13:04:44;;;;;;;10.03;9.03;;;;;;;;;;6181668;28;20234;-69
2022/02/15 13:08:15;;;;;;;11.23;9.90;;;;;;;;;;6180361;28;20330;-67
2022/02/15 13:11:36;;;;;;;10.67;9.57;;;;;;;;;;6179386;28;20245;-68
2022/02/15 13:14:59;;;;;;;13.00;9.37;;;;;;;;;;6181815;28;20238;-68
2022/02/15 13:18:20;;;;;;;12.20;11.10;;;;;;;;;;6180618;28;20416;-69
2022/02/15 13:21:44;;;;;;;11.83;10.73;;;;;;;;;;6185440;28;20278;-69
2022/02/15 13:25:07;;;;;;;13.00;11.70;;;;;;;;;;6178989;28;21324;-68
2022/02/15 13:28:29;;;;;;;10.93;9.83;;;;;;;;;;6175235;28;20257;-65
2022/02/15 13:31:51;;;;;;;12.63;11.17;;;;;;;;;;6175252;28;20612;-65
2022/02/15 13:35:15;;;;;;;13.80;11.07;;;;;;;;;;6180968;28;20620;-68
2022/02/15 13:38:36;;;;;;;14.27;11.03;;;;;;;;;;6180358;28;20237;-69
2022/02/15 13:42:00;;;;;;;11.00;9.93;;;;;;;;;;6177625;28;20483;-69
2022/02/15 13:45:20;;;;;;;11.67;10.50;;;;;;;;;;6181789;28;20238;-68
2022/02/15 13:48:41;;;;;;;13.13;10.37;;;;;;;;;;6184333;28;20509;-68
2022/02/15 13:52:01;;;;;;;10.87;9.87;;;;;;;;;;6185828;28;20244;-66
2022/02/15 13:55:22;;;;;;;10.57;9.57;;;;;;;;;;6182365;28;20237;-68
2022/02/15 13:58:44;;;;;;;11.17;10.07;;;;;;;;;;6182677;28;20226;-68
2022/02/15 14:02:04;;;;;;;10.70;9.67;;;;;;;;;;6179734;28;20242;-68
2022/02/15 14:05:27;;;;;;;9.20;7.23;;;;;;;;;;6171738;28;20262;-69
2022/02/15 14:08:48;;;;;;;11.13;10.10;;;;;;;;;;6172209;28;20245;-69
2022/02/15 14:12:09;;;;;;;9.93;8.97;;;;;;;;;;6171387;28;20238;-69
2022/02/15 14:15:32;;;;;;;12.27;10.20;;;;;;;;;;6171155;28;20238;-68
2022/02/15 14:18:53;;;;;;;11.53;10.40;;;;;;;;;;6173824;28;20237;-68
2022/02/15 14:22:16;;;;;;;10.30;9.00;;;;;;;;;;6169807;28;20258;-67
2022/02/15 14:25:37;;;;;;;12.93;9.50;;;;;;;;;;6170457;28;20237;-69
2022/02/15 14:28:58;;;;;;;10.10;9.20;;;;;;;;;;6176285;28;20237;-68
2022/02/15 14:32:20;;;;;;;11.73;10.63;;;;;;;;;;6177829;28;20222;-69
2022/02/15 14:35:41;;;;;;;12.70;9.93;;;;;;;;;;6182092;28;21660;-68
2022/02/15 14:39:02;;;;;;;9.83;8.93;;;;;;;;;;6180524;28;20320;-70
2022/02/15 14:42:23;;;;;;;11.90;10.57;;;;;;;;;;6187664;28;20242;-66
2022/02/15 14:45:45;;;;;;;10.30;9.33;;;;;;;;;;6182282;28;20241;-65
2022/02/15 14:49:06;;;;;;;12.00;10.87;;;;;;;;;;6183457;28;20225;-68
2022/02/15 14:52:27;;;;;;;11.27;10.20;;;;;;;;;;6185071;28;20274;-66
2022/02/15 14:55:49;;;;;;;11.97;10.33;;;;;;;;;;6181896;28;20233;-69
2022/02/15 14:59:10;;;;;;;11.87;10.53;;;;;;;;;;6183017;28;20230;-67
2022/02/15 15:02:31;;;;;;;12.77;10.13;;;;;;;;;;6171575;28;20241;-66
2022/02/15 15:05:55;;;;;;;12.10;10.40;;;;;;;;;;6178333;28;20265;-65
2022/02/15 15:09:16;;;;;;;11.60;10.50;;;;;;;;;;6176432;28;20551;-67
2022/02/15 15:12:37;;;;;;;10.67;9.73;;;;;;;;;;6181904;28;20658;-67
2022/02/15 15:15:57;;;;;;;13.87;10.80;;;;;;;;;;6177508;28;20229;-66
2022/02/15 15:19:18;;;;;;;13.17;11.67;;;;;;;;;;6181361;28;20218;-65
2022/02/15 15:22:41;;;;;;;13.00;9.70;;;;;;;;;;6174681;28;20226;-65
2022/02/15 15:26:02;;;;;;;13.83;12.03;;;;;;;;;;6186229;28;20624;-66
2022/02/15 15:29:23;;;;;;;16.43;12.90;;;;;;;;;;6183635;28;20237;-67
2022/02/15 15:32:44;;;;;;;13.57;11.63;;;;;;;;;;6182879;28;20225;-66
2022/02/15 15:36:05;;;;;;;12.80;9.90;;;;;;;;;;6152041;28;20537;-67
2022/02/15 15:39:27;;;;;;;12.43;10.13;;;;;;;;;;6182820;28;20961;-68
2022/02/15 15:42:49;;;;;;;11.70;10.50;;;;;;;;;;6187364;28;20229;-68
2022/02/15 15:46:10;;;;;;;12.80;11.33;;;;;;;;;;6182356;28;21936;-67
2022/02/15 15:49:31;;;;;;;14.33;11.83;;;;;;;;;;6186307;28;20226;-68
2022/02/15 15:52:51;;;;;;;15.30;12.63;;;;;;;;;;6185887;28;20233;-66
2022/02/15 15:56:13;;;;;;;12.43;11.23;;;;;;;;;;6185347;28;20687;-68
2022/02/15 15:59:33;;;;;;;27.00;12.80;;;;;;;;;;6181224;28;20234;-67
2022/02/15 16:02:54;;;;;;;11.80;10.60;;;;;;;;;;6168755;28;20317;-66
2022/02/15 16:06:14;;;;;;;11.73;10.60;;;;;;;;;;6167414;28;20245;-66
2022/02/15 16:09:35;;;;;;;11.83;9.47;;;;;;;;;;6161514;28;20265;-66
2022/02/15 16:12:57;;;;;;;11.80;10.63;;;;;;;;;;6164507;28;20230;-67
2022/02/15 16:16:17;;;;;;;10.13;8.77;;;;;;;;;;6167219;28;20653;-66
2022/02/15 16:19:38;;;;;;;10.57;9.37;;;;;;;;;;6156546;28;20249;-67
2022/02/15 16:22:59;;;;;;;10.90;9.80;;;;;;;;;;6161444;28;20222;-67
2022/02/15 16:26:20;;;;;;;12.97;8.87;;;;;;;;;;6164837;28;20259;-67
2022/02/15 16:29:42;;;;;;;13.07;9.37;;;;;;;;;;6162154;28;20226;-67
2022/02/15 16:33:04;;;;;;;12.03;10.23;;;;;;;;;;6167921;28;20234;-68
2022/02/15 16:36:24;;;;;;;12.77;11.47;;;;;;;;;;6149785;28;21305;-67
2022/02/15 16:39:45;;;;;;;11.57;10.30;;;;;;;;;;6145902;28;20270;-67
2022/02/15 16:43:06;;;;;;;13.83;10.17;;;;;;;;;;6144372;28;20325;-66
2022/02/15 16:46:28;;;;;;;13.17;10.03;;;;;;;;;;6143923;28;20238;-67
2022/02/15 16:49:49;;;;;;;10.17;9.17;;;;;;;;;;6149398;28;20230;-67
2022/02/15 16:53:10;;;;;;;7.80;7.00;;;;;;;;;;6151746;28;20230;-67
2022/02/15 16:56:31;;;;;;;7.37;6.77;;;;;;;;;;6153997;28;20313;-67
2022/02/15 16:59:52;;;;;;;10.77;7.50;;;;;;;;;;6143342;28;20231;-66
2022/02/15 17:03:14;;;;;;;7.60;6.87;;;;;;;;;;6145384;28;20234;-68
2022/02/15 17:06:34;;;;;;;8.17;7.33;;;;;;;;;;6162229;28;20631;-68
2022/02/15 17:09:55;;;;;;;10.73;7.93;;;;;;;;;;6166487;28;20234;-67
2022/02/15 17:13:16;;;;;;;9.53;7.77;;;;;;;;;;6169102;28;20234;-66
2022/02/15 17:16:36;;;;;;;9.17;7.83;;;;;;;;;;6167409;28;20950;-67
2022/02/15 17:19:58;;;;;;;9.57;6.70;;;;;;;;;;6154333;28;20583;-68
2022/02/15 17:23:19;;;;;;;8.20;6.53;;;;;;;;;;6160672;28;20242;-67
2022/02/15 17:26:40;;;;;;;10.47;7.80;;;;;;;;;;6160876;28;20229;-68
2022/02/15 17:30:00;;;;;;;10.03;7.90;;;;;;;;;;6151257;28;20616;-69
2022/02/15 17:33:21;;;;;;;8.83;7.67;;;;;;;;;;6156843;28;20246;-67
2022/02/15 17:36:43;;;;;;;9.67;7.80;;;;;;;;;;6170095;28;20714;-68
2022/02/15 17:40:04;;;;;;;9.03;8.10;;;;;;;;;;6163948;28;20707;-67
2022/02/15 17:43:25;;;;;;;13.83;8.37;;;;;;;;;;6154757;28;21093;-67
2022/02/15 17:46:46;;;;;;;10.50;8.97;;;;;;;;;;6151226;28;20492;-68
2022/02/15 17:50:07;;;;;;;9.93;8.97;;;;;;;;;;6158480;28;20691;-66
2022/02/15 17:53:33;;;;;;;14.33;10.33;;;;;;;;;;6166179;28;20241;-67
2022/02/15 17:56:53;;;;;;;9.87;8.90;;;;;;;;;;6165810;28;20230;-68
2022/02/15 18:00:14;;;;;;;11.33;9.60;;;;;;;;;;6165275;28;20273;-68
2022/02/15 18:03:35;;;;;;;12.37;8.77;;;;;;;;;;6160670;28;20279;-67
2022/02/15 18:06:56;;;;;;;9.13;8.27;;;;;;;;;;6167062;28;20261;-68
2022/02/15 18:10:18;;;;;;;11.13;8.83;;;;;;;;;;6163871;28;20234;-67
2022/02/15 18:13:39;;;;;;;10.00;8.53;;;;;;;;;;6164944;28;20222;-67
2022/02/15 18:17:01;;;;;;;10.10;7.97;;;;;;;;;;6168855;28;20263;-66
2022/02/15 18:20:21;;;;;;;9.80;8.80;;;;;;;;;;6167729;28;20237;-68
2022/02/15 18:23:42;;;;;;;12.30;9.07;;;;;;;;;;6174988;28;20257;-67
2022/02/15 18:27:04;;;;;;;10.77;9.53;;;;;;;;;;6168882;28;20234;-66
2022/02/15 18:30:25;;;;;;;9.73;8.57;;;;;;;;;;6169653;28;20549;-68
2022/02/15 18:33:45;;;;;;;9.57;8.43;;;;;;;;;;6171492;28;20319;-68
2022/02/15 18:37:06;;;;;;;9.97;8.33;;;;;;;;;;6168445;28;20583;-67
2022/02/15 18:40:26;;;;;;;9.87;8.87;;;;;;;;;;6176221;28;20237;-68
2022/02/15 18:43:48;;;;;;;9.53;8.40;;;;;;;;;;6168109;28;20253;-68
2022/02/15 18:47:12;;;;;;;10.17;9.17;;;;;;;;;;6171579;28;20230;-66
2022/02/15 18:50:32;;;;;;;9.10;8.30;;;;;;;;;;6168089;28;20230;-67
2022/02/15 18:53:53;;;;;;;10.13;9.03;;;;;;;;;;6173664;28;20237;-68
2022/02/15 18:57:14;;;;;;;9.63;8.73;;;;;;;;;;6177433;28;20253;-68
2022/02/15 19:00:36;;;;;;;7.73;7.03;;;;;;;;;;6178382;28;20552;-68
2022/02/15 19:03:57;;;;;;;9.27;8.47;;;;;;;;;;6174742;28;20238;-67
2022/02/15 19:07:17;;;;;;;9.73;8.87;;;;;;;;;;6177162;28;20222;-68
2022/02/15 19:10:38;;;;;;;12.00;8.70;;;;;;;;;;6176589;28;20237;-68
2022/02/15 19:13:58;;;;;;;18.40;10.00;;;;;;;;;;6178682;28;20267;-67
2022/02/15 19:17:21;;;;;;;11.03;8.27;;;;;;;;;;6177933;28;20494;-68
2022/02/15 19:20:41;;;;;;;10.60;6.80;;;;;;;;;;6178023;28;20249;-68
2022/02/15 19:24:01;;;;;;;9.27;7.63;;;;;;;;;;6178439;28;20255;-67
2022/02/15 19:27:22;;;;;;;8.70;7.80;;;;;;;;;;6173717;28;20225;-68
2022/02/15 19:30:45;;;;;;;7.17;6.40;;;;;;;;;;6172603;28;20242;-70
2022/02/15 19:34:07;;;;;;;11.67;6.80;;;;;;;;;;6172530;28;20313;-71
2022/02/15 19:37:31;;;;;;;9.20;8.30;;;;;;;;;;6174532;28;20628;-68
2022/02/15 19:40:52;;;;;;;7.47;6.30;;;;;;;;;;6173938;28;20233;-69
2022/02/15 19:44:13;;;;;;;7.20;6.47;;;;;;;;;;6178348;28;20823;-69
2022/02/15 19:47:34;;;;;;;7.93;7.13;;;;;;;;;;6175575;28;20239;-69
2022/02/15 19:50:56;;;;;;;8.13;6.60;;;;;;;;;;6171925;28;20229;-69
2022/02/15 19:54:16;;;;;;;9.13;7.90;;;;;;;;;;6174386;28;20233;-69
2022/02/15 19:57:37;;;;;;;9.47;6.70;;;;;;;;;;6170996;28;20788;-70
2022/02/15 20:00:58;;;;;;;6.27;5.33;;;;;;;;;;6170408;28;20242;-70
2022/02/15 20:04:19;;;;;;;10.20;6.17;;;;;;;;;;6170946;28;20238;-69
2022/02/15 20:07:41;;;;;;;7.60;6.90;;;;;;;;;;6171611;28;20628;-68